createdAt,value
2018-09-28T00:00:50.607Z,102092.33
2018-09-28T00:03:19.509Z,102103.36
2018-09-28T00:05:48.381Z,102102.62
2018-09-28T00:08:17.337Z,102092.13
2018-09-28T00:10:46.205Z,102098.84
2018-09-28T00:13:15.111Z,102106.17
2018-09-28T00:15:43.980Z,102102.03
2018-09-28T00:18:12.863Z,102105.98
2018-09-28T00:20:41.763Z,102106.19
2018-09-28T00:23:10.676Z,102097.26
2018-09-28T00:25:39.522Z,102098.45
2018-09-28T00:28:08.434Z,102101.04
2018-09-28T00:30:37.287Z,102108.30
2018-09-28T00:33:06.343Z,102100.73
2018-09-28T00:35:35.250Z,102101.37
2018-09-28T00:38:04.129Z,102096.45
2018-09-28T00:40:33.029Z,102103.33
2018-09-28T00:43:01.878Z,102102.08
2018-09-28T00:45:30.869Z,102097.59
2018-09-28T00:47:59.742Z,102104.59
2018-09-28T00:50:28.663Z,102098.48
2018-09-28T00:52:57.639Z,102108.19
2018-09-28T00:55:27.139Z,102109.00
2018-09-28T00:57:56.398Z,102115.22
2018-09-28T01:00:25.319Z,102108.56
2018-09-28T01:02:54.185Z,102103.69
2018-09-28T01:05:23.113Z,102108.70
2018-09-28T01:07:52.182Z,102104.71
2018-09-28T01:10:21.372Z,102110.27
2018-09-28T01:12:50.223Z,102106.80
2018-09-28T01:15:19.141Z,102106.53
2018-09-28T01:17:48.008Z,102099.95
2018-09-28T01:20:17.252Z,102106.38
2018-09-28T01:22:46.252Z,102109.55
2018-09-28T01:25:15.453Z,102109.75
2018-09-28T01:27:44.327Z,102116.95
2018-09-28T01:30:13.228Z,102118.37
2018-09-28T01:32:42.128Z,102125.48
2018-09-28T01:35:11.056Z,102126.95
2018-09-28T01:37:39.938Z,102124.84
2018-09-28T01:40:08.802Z,102127.20
2018-09-28T01:42:37.701Z,102129.45
2018-09-28T01:45:08.468Z,102130.73
2018-09-28T01:47:37.390Z,102131.98
2018-09-28T01:50:06.252Z,102131.89
2018-09-28T01:52:35.226Z,102136.92
2018-09-28T01:55:04.921Z,102139.57
2018-09-28T01:57:33.840Z,102139.69
2018-09-28T02:00:02.777Z,102146.34
2018-09-28T02:02:31.696Z,102141.81
2018-09-28T02:05:00.866Z,102137.05
2018-09-28T02:07:30.218Z,102143.05
2018-09-28T02:09:59.058Z,102145.70
2018-09-28T02:12:28.162Z,102142.36
2018-09-28T02:14:57.278Z,102145.48
2018-09-28T02:17:26.434Z,102152.80
2018-09-28T02:19:55.290Z,102154.70
2018-09-28T02:22:24.184Z,102160.16
2018-09-28T02:24:53.110Z,102166.52
2018-09-28T02:27:22.053Z,102173.32
2018-09-28T02:29:50.978Z,102173.56
2018-09-28T02:32:19.833Z,102164.19
2018-09-28T02:34:48.709Z,102163.41
2018-09-28T02:37:17.622Z,102165.48
2018-09-28T02:39:46.523Z,102157.01
2018-09-28T02:42:15.415Z,102158.73
2018-09-28T02:44:44.359Z,102170.73
2018-09-28T02:47:13.234Z,102173.00
2018-09-28T02:49:42.228Z,102179.77
2018-09-28T02:52:11.119Z,102177.13
2018-09-28T02:54:39.993Z,102181.23
2018-09-28T02:57:09.177Z,102187.75
2018-09-28T02:59:38.085Z,102189.58
2018-09-28T03:02:07.470Z,102192.11
2018-09-28T03:04:36.382Z,102196.67
2018-09-28T03:07:11.090Z,102197.36
2018-09-28T03:09:46.015Z,102205.14
2018-09-28T03:12:21.043Z,102202.82
2018-09-28T03:14:50.194Z,102211.31
2018-09-28T03:17:25.181Z,102217.45
2018-09-28T03:20:00.039Z,102221.00
2018-09-28T03:22:35.175Z,102221.81
2018-09-28T03:25:04.239Z,102224.79
2018-09-28T03:27:33.389Z,102227.63
2018-09-28T03:30:02.305Z,102232.33
2018-09-28T03:32:31.243Z,102226.84
2018-09-28T03:35:00.129Z,102232.33
2018-09-28T03:37:28.995Z,102231.40
2018-09-28T03:39:57.910Z,102232.67
2018-09-28T03:42:26.758Z,102238.95
2018-09-28T03:44:55.662Z,102237.78
2018-09-28T03:47:24.631Z,102242.27
2018-09-28T03:49:53.475Z,102243.28
2018-09-28T03:52:22.690Z,102248.78
2018-09-28T03:54:53.148Z,102244.91
2018-09-28T03:57:27.965Z,102251.99
2018-09-28T04:00:02.947Z,102254.95
2018-09-28T04:02:38.042Z,102259.76
2018-09-28T04:05:12.894Z,102259.98
2018-09-28T04:07:47.765Z,102266.14
2018-09-28T04:10:22.521Z,102262.69
2018-09-28T04:12:57.800Z,102268.74
2018-09-28T04:15:26.657Z,102260.86
2018-09-28T04:17:55.698Z,102274.37
2018-09-28T04:20:24.595Z,102274.13
2018-09-28T04:22:59.473Z,102283.52
2018-09-28T04:25:34.439Z,102289.88
2018-09-28T04:28:07.646Z,102295.84
2018-09-28T04:30:36.486Z,102302.91
2018-09-28T04:33:05.472Z,102309.38
2018-09-28T04:35:34.713Z,102309.50
2018-09-28T04:38:04.222Z,102306.44
2018-09-28T04:40:33.269Z,102310.68
2018-09-28T04:43:02.176Z,102315.82
2018-09-28T04:45:31.087Z,102318.37
2018-09-28T04:48:00.043Z,102324.73
2018-09-28T04:50:28.949Z,102323.33
2018-09-28T04:52:57.975Z,102319.09
2018-09-28T04:55:26.830Z,102328.91
2018-09-28T04:57:55.725Z,102334.42
2018-09-28T05:00:24.586Z,102338.10
2018-09-28T05:02:53.522Z,102341.38
2018-09-28T05:05:22.504Z,102343.67
2018-09-28T05:07:51.400Z,102352.59
2018-09-28T05:10:26.263Z,102354.48
2018-09-28T05:13:01.019Z,102360.47
2018-09-28T05:15:29.979Z,102363.68
2018-09-28T05:17:58.825Z,102374.39
2018-09-28T05:20:33.795Z,102370.13
2018-09-28T05:23:02.741Z,102371.09
2018-09-28T05:25:31.707Z,102375.26
2018-09-28T05:28:06.717Z,102375.13
2018-09-28T05:30:44.969Z,102379.24
2018-09-28T05:33:06.424Z,102378.82
2018-09-28T05:35:35.313Z,102382.55
2018-09-28T05:38:10.065Z,102390.81
2018-09-28T05:40:44.954Z,102401.94
2018-09-28T05:43:19.822Z,102409.61
2018-09-28T05:45:54.749Z,102415.34
2018-09-28T05:48:29.563Z,102413.03
2018-09-28T05:50:58.491Z,102418.78
2018-09-28T05:53:27.405Z,102411.31
2018-09-28T05:55:56.557Z,102423.17
2018-09-28T05:58:30.948Z,102426.78
2018-09-28T06:01:05.498Z,102425.58
2018-09-28T06:03:34.437Z,102422.54
2018-09-28T06:06:03.830Z,102431.88
2018-09-28T06:08:32.688Z,102433.38
2018-09-28T06:11:01.573Z,102435.61
2018-09-28T06:13:30.429Z,102445.62
2018-09-28T06:15:59.329Z,102444.52
2018-09-28T06:18:28.406Z,102444.69
2018-09-28T06:20:57.406Z,102445.59
2018-09-28T06:23:26.371Z,102454.16
2018-09-28T06:25:55.312Z,102461.11
2018-09-28T06:28:24.182Z,102467.78
2018-09-28T06:30:53.137Z,102465.26
2018-09-28T06:33:21.978Z,102473.66
2018-09-28T06:35:50.964Z,102471.98
2018-09-28T06:38:19.809Z,102479.62
2018-09-28T06:40:48.656Z,102476.27
2018-09-28T06:43:17.626Z,102477.89
2018-09-28T06:45:46.646Z,102488.49
2018-09-28T06:48:15.609Z,102489.73
2018-09-28T06:50:44.458Z,102502.34
2018-09-28T06:53:13.395Z,102511.47
2018-09-28T06:55:42.305Z,102513.70
2018-09-28T06:58:11.238Z,102514.12
2018-09-28T07:00:40.078Z,102514.72
2018-09-28T07:03:08.938Z,102511.77
2018-09-28T07:05:37.765Z,102520.12
2018-09-28T07:08:06.859Z,102518.92
2018-09-28T07:10:35.705Z,102524.58
2018-09-28T07:13:04.623Z,102523.47
2018-09-28T07:15:33.475Z,102534.10
2018-09-28T07:18:02.420Z,102535.08
2018-09-28T07:20:31.367Z,102537.36
2018-09-28T07:23:00.592Z,102539.98
2018-09-28T07:25:29.453Z,102541.95
2018-09-28T07:27:58.365Z,102552.92
2018-09-28T07:30:27.235Z,102550.11
2018-09-28T07:32:56.298Z,102551.77
2018-09-28T07:35:25.297Z,102555.09
2018-09-28T07:37:54.172Z,102560.80
2018-09-28T07:40:23.116Z,102562.09
2018-09-28T07:42:52.119Z,102564.52
2018-09-28T07:45:21.077Z,102561.65
2018-09-28T07:47:49.962Z,102567.56
2018-09-28T07:50:18.934Z,102574.98
2018-09-28T07:52:47.793Z,102582.77
2018-09-28T07:55:16.748Z,102585.04
2018-09-28T07:57:45.660Z,102583.23
2018-09-28T08:00:14.593Z,102586.89
2018-09-28T08:02:43.435Z,102582.53
2018-09-28T08:05:12.338Z,102585.49
2018-09-28T08:07:41.171Z,102588.48
2018-09-28T08:10:10.158Z,102592.63
2018-09-28T08:12:39.125Z,102594.80
2018-09-28T08:15:08.309Z,102597.31
2018-09-28T08:17:37.435Z,102608.55
2018-09-28T08:20:06.556Z,102612.52
2018-09-28T08:22:35.750Z,102610.98
2018-09-28T08:25:04.917Z,102616.56
2018-09-28T08:27:33.751Z,102624.03
2018-09-28T08:30:02.644Z,102618.12
2018-09-28T08:32:31.634Z,102623.91
2018-09-28T08:35:00.533Z,102627.02
2018-09-28T08:37:29.403Z,102626.19
2018-09-28T08:39:58.248Z,102627.05
2018-09-28T08:42:27.149Z,102626.84
2018-09-28T08:44:55.990Z,102620.98
2018-09-28T08:47:24.942Z,102617.48
2018-09-28T08:49:54.068Z,102623.34
2018-09-28T08:52:22.970Z,102623.56
2018-09-28T08:54:51.864Z,102630.20
2018-09-28T08:57:20.768Z,102631.81
2018-09-28T08:59:49.814Z,102635.61
2018-09-28T09:02:18.837Z,102640.88
2018-09-28T09:04:47.667Z,102632.73
2018-09-28T09:07:16.570Z,102644.06
2018-09-28T09:09:45.489Z,102647.39
2018-09-28T09:12:14.507Z,102653.33
2018-09-28T09:14:43.439Z,102655.83
2018-09-28T09:17:12.355Z,102661.13
2018-09-28T09:19:41.210Z,102660.44
2018-09-28T09:22:10.090Z,102663.68
2018-09-28T09:24:38.995Z,102664.08
2018-09-28T09:27:08.065Z,102668.03
2018-09-28T09:29:37.206Z,102663.75
2018-09-28T09:32:06.122Z,102662.98
2018-09-28T09:34:36.606Z,102664.14
2018-09-28T09:37:05.962Z,102674.48
2018-09-28T09:39:34.933Z,102670.81
2018-09-28T09:42:03.823Z,102658.75
2018-09-28T09:44:32.731Z,102668.27
2018-09-28T09:47:01.634Z,102667.61
2018-09-28T09:49:30.604Z,102662.89
2018-09-28T09:51:59.655Z,102667.34
2018-09-28T09:54:28.599Z,102669.42
2018-09-28T09:56:57.478Z,102668.61
2018-09-28T09:59:26.335Z,102671.86
2018-09-28T10:02:00.938Z,102669.53
2018-09-28T10:04:29.803Z,102672.65
2018-09-28T10:06:58.651Z,102670.45
2018-09-28T10:09:27.505Z,102673.09
2018-09-28T10:11:57.106Z,102681.03
2018-09-28T10:14:25.943Z,102659.45
2018-09-28T10:16:54.775Z,102662.94
2018-09-28T10:19:23.704Z,102667.08
2018-09-28T10:21:52.492Z,102666.41
2018-09-28T10:24:21.441Z,102663.05
2018-09-28T10:26:50.266Z,102671.73
2018-09-28T10:29:19.392Z,102656.77
2018-09-28T10:31:48.280Z,102660.44
2018-09-28T10:34:17.136Z,102659.06
2018-09-28T10:36:46.020Z,102660.34
2018-09-28T10:39:14.938Z,102664.62
2018-09-28T10:41:43.800Z,102668.86
2018-09-28T10:44:12.588Z,102668.38
2018-09-28T10:46:41.683Z,102671.02
2018-09-28T10:49:10.546Z,102668.08
2018-09-28T10:51:39.478Z,102670.80
2018-09-28T10:54:08.344Z,102671.09
2018-09-28T10:56:37.208Z,102670.02
2018-09-28T10:59:06.101Z,102663.90
2018-09-28T11:01:34.987Z,102669.62
2018-09-28T11:04:07.657Z,102666.51
2018-09-28T11:06:36.504Z,102676.77
2018-09-28T11:09:09.328Z,102670.87
2018-09-28T11:11:38.384Z,102675.36
2018-09-28T11:14:07.644Z,102672.74
2018-09-28T11:16:36.488Z,102682.73
2018-09-28T11:19:05.740Z,102678.97
2018-09-28T11:21:34.558Z,102677.02
2018-09-28T11:24:03.469Z,102674.16
2018-09-28T11:26:32.356Z,102687.83
2018-09-28T11:29:01.116Z,102696.48
2018-09-28T11:31:29.934Z,102706.89
2018-09-28T11:33:58.776Z,102710.66
2018-09-28T11:36:27.636Z,102710.41
2018-09-28T11:38:56.471Z,102704.66
2018-09-28T11:41:25.306Z,102705.10
2018-09-28T11:43:54.203Z,102708.98
2018-09-28T11:46:22.998Z,102706.55
2018-09-28T11:48:51.900Z,102708.14
2018-09-28T11:51:20.739Z,102704.30
2018-09-28T11:53:49.625Z,102698.36
2018-09-28T11:56:18.419Z,102694.41
2018-09-28T11:58:47.245Z,102697.39
2018-09-28T12:01:16.091Z,102685.67
2018-09-28T12:03:44.974Z,102682.38
2018-09-28T12:06:13.780Z,102685.92
2018-09-28T12:08:42.631Z,102691.03
2018-09-28T12:11:11.428Z,102694.40
2018-09-28T12:13:40.320Z,102694.45
2018-09-28T12:16:09.200Z,102706.23
2018-09-28T12:18:38.078Z,102710.72
2018-09-28T12:21:06.999Z,102718.15
2018-09-28T12:23:35.803Z,102721.97
2018-09-28T12:26:04.656Z,102726.62
2018-09-28T12:28:33.440Z,102720.47
2018-09-28T12:31:02.267Z,102721.85
2018-09-28T12:33:31.074Z,102717.56
2018-09-28T12:36:00.318Z,102721.32
2018-09-28T12:38:29.153Z,102712.07
2018-09-28T12:40:57.979Z,102706.25
2018-09-28T12:43:26.761Z,102715.13
2018-09-28T12:45:55.637Z,102713.55
2018-09-28T12:48:24.474Z,102711.13
2018-09-28T12:50:54.198Z,102710.89
2018-09-28T12:53:23.091Z,102710.73
2018-09-28T12:55:51.948Z,102714.50
2018-09-28T12:58:20.764Z,102718.23
2018-09-28T13:00:50.009Z,102716.00
2018-09-28T13:03:18.851Z,102716.95
2018-09-28T13:05:47.729Z,102725.17
2018-09-28T13:08:16.603Z,102711.63
2018-09-28T13:10:46.487Z,102718.73
2018-09-28T13:13:15.863Z,102708.98
2018-09-28T13:15:44.781Z,102706.79
2018-09-28T13:18:13.580Z,102719.88
2018-09-28T13:20:42.537Z,102716.19
2018-09-28T13:23:11.265Z,102710.00
2018-09-28T13:25:40.217Z,102722.73
2018-09-28T13:28:09.107Z,102724.95
2018-09-28T13:30:37.912Z,102720.00
2018-09-28T13:33:06.792Z,102742.31
2018-09-28T13:35:35.589Z,102729.03
2018-09-28T13:38:04.486Z,102725.63
2018-09-28T13:40:33.343Z,102724.47
2018-09-28T13:43:03.148Z,102725.05
2018-09-28T13:45:32.043Z,102727.47
2018-09-28T13:48:00.795Z,102725.58
2018-09-28T13:50:29.648Z,102723.53
2018-09-28T13:52:58.634Z,102732.11
2018-09-28T13:55:27.453Z,102739.16
2018-09-28T13:57:56.268Z,102732.95
2018-09-28T14:00:25.126Z,102736.48
2018-09-28T14:02:53.940Z,102738.91
2018-09-28T14:05:22.812Z,102735.45
2018-09-28T14:07:51.733Z,102741.67
2018-09-28T14:10:20.569Z,102746.05
2018-09-28T14:12:49.408Z,102747.15
2018-09-28T14:15:18.225Z,102764.20
2018-09-28T14:17:47.114Z,102751.30
2018-09-28T14:20:15.947Z,102760.66
2018-09-28T14:22:45.250Z,102753.80
2018-09-28T14:25:14.064Z,102749.25
2018-09-28T14:27:42.836Z,102753.04
2018-09-28T14:30:12.925Z,102758.63
2018-09-28T14:32:41.725Z,102768.34
2018-09-28T14:35:10.564Z,102767.11
2018-09-28T14:37:39.361Z,102763.39
2018-09-28T14:40:09.869Z,102768.61
2018-09-28T14:42:40.388Z,102766.11
2018-09-28T14:45:09.248Z,102760.50
2018-09-28T14:47:38.064Z,102765.88
2018-09-28T14:50:07.100Z,102763.03
2018-09-28T14:52:35.962Z,102762.27
2018-09-28T14:55:05.072Z,102766.73
2018-09-28T14:57:33.886Z,102773.38
2018-09-28T15:00:04.358Z,102774.98
2018-09-28T15:02:33.235Z,102773.66
2018-09-28T15:05:02.116Z,102782.61
2018-09-28T15:07:31.416Z,102791.27
2018-09-28T15:10:01.483Z,102794.33
2018-09-28T15:12:30.359Z,102797.80
2018-09-28T15:14:59.380Z,102799.60
2018-09-28T15:17:28.227Z,102814.91
2018-09-28T15:19:57.220Z,102806.61
2018-09-28T15:22:26.024Z,102812.23
2018-09-28T15:24:54.821Z,102796.64
2018-09-28T15:27:23.713Z,102819.72
2018-09-28T15:29:52.484Z,102813.98
2018-09-28T15:32:21.385Z,102820.10
2018-09-28T15:34:50.180Z,102807.66
2018-09-28T15:37:19.008Z,102810.38
2018-09-28T15:39:47.824Z,102803.56
2018-09-28T15:42:16.666Z,102797.52
2018-09-28T15:44:45.516Z,102799.44
2018-09-28T15:47:14.339Z,102796.10
2018-09-28T15:49:43.115Z,102799.98
2018-09-28T15:52:11.949Z,102803.98
2018-09-28T15:54:40.843Z,102805.92
2018-09-28T15:57:09.743Z,102804.77
2018-09-28T15:59:38.579Z,102803.00
2018-09-28T16:02:07.876Z,102818.45
2018-09-28T16:04:36.717Z,102811.46
2018-09-28T16:07:06.061Z,102814.80
2018-09-28T16:09:35.094Z,102820.38
2018-09-28T16:12:04.054Z,102818.51
2018-09-28T16:14:32.786Z,102834.77
2018-09-28T16:17:01.649Z,102841.17
2018-09-28T16:19:30.503Z,102840.68
2018-09-28T16:21:59.365Z,102832.56
2018-09-28T16:24:28.214Z,102837.22
2018-09-28T16:26:57.006Z,102839.36
2018-09-28T16:29:26.308Z,102844.32
2018-09-28T16:31:55.101Z,102848.96
2018-09-28T16:34:24.260Z,102850.88
2018-09-28T16:36:53.116Z,102854.77
2018-09-28T16:39:22.394Z,102859.84
2018-09-28T16:41:51.310Z,102865.98
2018-09-28T16:44:20.146Z,102865.73
2018-09-28T16:46:49.121Z,102865.72
2018-09-28T16:49:17.990Z,102871.52
2018-09-28T16:51:46.792Z,102873.11
2018-09-28T16:54:15.723Z,102884.96
2018-09-28T16:56:44.504Z,102878.50
2018-09-28T16:59:13.396Z,102890.89
2018-09-28T17:01:42.203Z,102892.25
2018-09-28T17:04:11.035Z,102891.17
2018-09-28T17:06:39.880Z,102893.12
2018-09-28T17:09:12.562Z,102895.55
2018-09-28T17:11:42.852Z,102901.14
2018-09-28T17:14:11.710Z,102911.24
2018-09-28T17:16:40.539Z,102919.13
2018-09-28T17:19:09.375Z,102921.48
2018-09-28T17:21:38.193Z,102920.26
2018-09-28T17:24:07.448Z,102926.78
2018-09-28T17:26:36.288Z,102926.42
2018-09-28T17:29:05.220Z,102932.63
2018-09-28T17:31:34.148Z,102935.03
2018-09-28T17:34:02.966Z,102944.00
2018-09-28T17:36:32.525Z,102945.86
2018-09-28T17:39:01.319Z,102944.36
2018-09-28T17:41:30.218Z,102938.84
2018-09-28T17:43:59.070Z,102938.89
2018-09-28T17:46:28.164Z,102938.45
2018-09-28T17:48:57.012Z,102937.84
2018-09-28T17:51:25.883Z,102939.53
2018-09-28T17:53:54.741Z,102946.48
2018-09-28T17:56:23.944Z,102948.45
2018-09-28T17:58:52.784Z,102946.59
2018-09-28T18:01:21.900Z,102951.19
2018-09-28T18:03:50.702Z,102949.44
2018-09-28T18:06:19.555Z,102955.55
2018-09-28T18:08:48.377Z,102956.52
2018-09-28T18:11:17.423Z,102956.25
2018-09-28T18:13:46.633Z,102959.07
2018-09-28T18:16:16.384Z,102958.25
2018-09-28T18:18:45.256Z,102963.29
2018-09-28T18:21:14.045Z,102956.92
2018-09-28T18:23:42.901Z,102952.59
2018-09-28T18:26:11.724Z,102953.10
2018-09-28T18:28:40.609Z,102956.95
2018-09-28T18:31:09.916Z,102959.16
2018-09-28T18:33:38.750Z,102957.25
2018-09-28T18:36:07.620Z,102955.52
2018-09-28T18:38:36.672Z,102957.80
2018-09-28T18:41:05.769Z,102963.77
2018-09-28T18:43:34.593Z,102967.45
2018-09-28T18:46:03.401Z,102973.24
2018-09-28T18:48:32.370Z,102966.77
2018-09-28T18:51:01.237Z,102970.02
2018-09-28T18:53:30.082Z,102970.97
2018-09-28T18:55:58.997Z,102969.47
2018-09-28T18:58:27.760Z,102976.39
2018-09-28T19:00:56.661Z,102971.61
2018-09-28T19:03:25.916Z,102976.92
2018-09-28T19:05:54.844Z,102976.67
2018-09-28T19:08:23.640Z,102981.01
2018-09-28T19:10:52.420Z,102984.60
2018-09-28T19:13:21.253Z,102980.66
2018-09-28T19:15:50.227Z,102989.98
2018-09-28T19:18:19.016Z,102990.80
2018-09-28T19:20:47.806Z,102991.42
2018-09-28T19:23:16.625Z,102993.08
2018-09-28T19:25:45.419Z,102995.00
2018-09-28T19:28:14.529Z,102995.70
2018-09-28T19:30:43.383Z,103004.21
2018-09-28T19:33:12.195Z,103005.66
2018-09-28T19:35:41.032Z,103013.06
2018-09-28T19:38:09.832Z,103007.21
2018-09-28T19:40:39.212Z,103005.66
2018-09-28T19:43:07.987Z,103008.63
2018-09-28T19:45:37.052Z,103015.05
2018-09-28T19:48:06.280Z,103013.55
2018-09-28T19:50:35.111Z,103011.75
2018-09-28T19:53:04.013Z,103015.94
2018-09-28T19:55:33.040Z,103015.98
2018-09-28T19:58:01.885Z,103013.61
2018-09-28T20:00:30.672Z,103009.66
2018-09-28T20:02:59.512Z,103007.70
2018-09-28T20:05:28.367Z,103024.28
2018-09-28T20:07:57.291Z,103026.64
2018-09-28T20:10:26.084Z,103034.09
2018-09-28T20:12:54.902Z,103040.41
2018-09-28T20:15:23.693Z,103036.98
2018-09-28T20:17:52.616Z,103041.45
2018-09-28T20:20:21.743Z,103043.85
2018-09-28T20:22:50.907Z,103045.70
2018-09-28T20:25:19.841Z,103043.95
2018-09-28T20:27:48.667Z,103054.35
2018-09-28T20:30:17.535Z,103053.22
2018-09-28T20:32:46.408Z,103055.83
2018-09-28T20:35:15.219Z,103047.34
2018-09-28T20:37:44.159Z,103056.98
2018-09-28T20:40:12.965Z,103068.07
2018-09-28T20:42:41.830Z,103060.86
2018-09-28T20:45:16.754Z,103063.83
2018-09-28T20:47:45.555Z,103067.33
2018-09-28T20:50:14.435Z,103075.66
2018-09-28T20:52:43.296Z,103079.16
2018-09-28T20:55:12.219Z,103073.34
2018-09-28T20:57:41.025Z,103070.86
2018-09-28T21:00:10.210Z,103075.05
2018-09-28T21:02:39.030Z,103074.69
2018-09-28T21:05:07.970Z,103069.41
2018-09-28T21:07:36.815Z,103077.33
2018-09-28T21:10:05.715Z,103073.26
2018-09-28T21:12:34.517Z,103078.63
2018-09-28T21:15:04.927Z,103078.36
2018-09-28T21:17:35.511Z,103086.08
2018-09-28T21:20:04.464Z,103088.35
2018-09-28T21:22:33.276Z,103091.89
2018-09-28T21:25:02.151Z,103094.03
2018-09-28T21:27:31.209Z,103094.57
2018-09-28T21:30:00.090Z,103085.88
2018-09-28T21:32:29.138Z,103084.00
2018-09-28T21:34:58.016Z,103088.06
2018-09-28T21:37:26.783Z,103089.75
2018-09-28T21:39:55.586Z,103099.31
2018-09-28T21:42:24.472Z,103089.19
2018-09-28T21:44:53.281Z,103082.67
2018-09-28T21:47:22.110Z,103086.30
2018-09-28T21:49:51.252Z,103085.48
2018-09-28T21:52:20.080Z,103080.91
2018-09-28T21:54:48.940Z,103084.41
2018-09-28T21:57:17.785Z,103086.59
2018-09-28T21:59:46.550Z,103099.14
2018-09-28T22:02:15.411Z,103094.20
2018-09-28T22:04:44.255Z,103092.44
2018-09-28T22:07:13.128Z,103091.16
2018-09-28T22:09:41.921Z,103094.41
2018-09-28T22:12:10.887Z,103101.20
2018-09-28T22:14:39.704Z,103101.37
2018-09-28T22:17:08.555Z,103098.89
2018-09-28T22:19:37.410Z,103105.66
2018-09-28T22:22:06.315Z,103103.61
2018-09-28T22:24:35.078Z,103096.99
2018-09-28T22:27:03.938Z,103097.67
2018-09-28T22:29:32.706Z,103101.13
2018-09-28T22:32:01.604Z,103097.50
2018-09-28T22:34:30.420Z,103098.37
2018-09-28T22:36:59.205Z,103102.00
2018-09-28T22:39:29.282Z,103102.44
2018-09-28T22:41:58.324Z,103096.66
2018-09-28T22:44:27.234Z,103093.08
2018-09-28T22:46:56.034Z,103090.70
2018-09-28T22:49:24.876Z,103092.68
2018-09-28T22:51:53.664Z,103092.23
2018-09-28T22:54:22.503Z,103099.52
2018-09-28T22:56:51.394Z,103102.48
2018-09-28T22:59:20.432Z,103098.53
2018-09-28T23:01:49.264Z,103084.95
2018-09-28T23:04:18.114Z,103081.16
2018-09-28T23:06:47.157Z,103087.37
2018-09-28T23:09:16.048Z,103084.13
2018-09-28T23:11:44.831Z,103087.95
2018-09-28T23:14:13.685Z,103091.17
2018-09-28T23:16:42.491Z,103094.87
2018-09-28T23:19:11.328Z,103094.70
2018-09-28T23:21:40.520Z,103096.27
2018-09-28T23:24:09.339Z,103101.92
2018-09-28T23:26:38.135Z,103102.81
2018-09-28T23:29:06.953Z,103102.24
2018-09-28T23:31:35.739Z,103106.00
2018-09-28T23:34:04.664Z,103106.47
2018-09-28T23:36:33.471Z,103107.30
2018-09-28T23:39:02.431Z,103110.67
2018-09-28T23:41:31.289Z,103116.39
2018-09-28T23:44:00.104Z,103109.83
2018-09-28T23:46:29.011Z,103113.90
2018-09-28T23:48:57.819Z,103109.59
2018-09-28T23:51:26.651Z,103119.97
2018-09-28T23:53:55.868Z,103119.41
2018-09-28T23:56:24.739Z,103125.55
2018-09-28T23:58:53.719Z,103127.51
